sensor_id;sensor_type;location;lat;lon;timestamp;P1;P2;P0
76049;PMS7003;64967;50.234;19.224;2023-02-15T00:02:00;23.75;21.50;14.75
76049;PMS7003;64967;50.234;19.224;2023-02-15T00:04:27;23.25;19.75;13.00
76049;PMS7003;64967;50.234;19.224;2023-02-15T00:07:16;14.25;11.00;10.00
76049;PMS7003;64967;50.234;19.224;2023-02-15T00:09:47;12.00;9.75;7.00
76049;PMS7003;64967;50.234;19.224;2023-02-15T00:12:15;26.50;15.25;10.50
76049;PMS7003;64967;50.234;19.224;2023-02-15T00:14:42;14.25;11.00;7.00
76049;PMS7003;64967;50.234;19.224;2023-02-15T00:17:09;18.75;12.50;10.00
76049;PMS7003;64967;50.234;19.224;2023-02-15T00:19:37;18.00;14.25;10.00
76049;PMS7003;64967;50.234;19.224;2023-02-15T00:22:04;16.00;14.50;10.00
76049;PMS7003;64967;50.234;19.224;2023-02-15T00:24:31;22.25;20.00;14.50
76049;PMS7003;64967;50.234;19.224;2023-02-15T00:26:58;26.25;20.00;14.25
76049;PMS7003;64967;50.234;19.224;2023-02-15T00:29:25;25.00;18.50;12.00
76049;PMS7003;64967;50.234;19.224;2023-02-15T00:31:53;27.50;18.75;11.00
76049;PMS7003;64967;50.234;19.224;2023-02-15T00:34:21;31.25;28.25;18.25
76049;PMS7003;64967;50.234;19.224;2023-02-15T00:36:49;28.75;23.25;14.75
76049;PMS7003;64967;50.234;19.224;2023-02-15T00:39:17;18.00;16.25;13.00
76049;PMS7003;64967;50.234;19.224;2023-02-15T00:41:45;27.50;22.75;14.00
76049;PMS7003;64967;50.234;19.224;2023-02-15T00:44:13;18.25;17.75;14.50
76049;PMS7003;64967;50.234;19.224;2023-02-15T00:46:41;15.00;13.75;10.00
76049;PMS7003;64967;50.234;19.224;2023-02-15T00:49:08;30.50;23.50;15.00
76049;PMS7003;64967;50.234;19.224;2023-02-15T00:51:36;23.25;21.75;16.50
76049;PMS7003;64967;50.234;19.224;2023-02-15T00:54:03;19.25;13.00;8.50
76049;PMS7003;64967;50.234;19.224;2023-02-15T00:56:30;15.00;11.50;7.00
76049;PMS7003;64967;50.234;19.224;2023-02-15T00:58:57;15.00;9.75;6.75
76049;PMS7003;64967;50.234;19.224;2023-02-15T01:01:24;18.50;17.00;10.00
76049;PMS7003;64967;50.234;19.224;2023-02-15T01:03:52;27.00;22.75;14.75
76049;PMS7003;64967;50.234;19.224;2023-02-15T01:06:19;30.67;24.00;17.00
76049;PMS7003;64967;50.234;19.224;2023-02-15T01:08:46;40.00;34.00;22.00
76049;PMS7003;64967;50.234;19.224;2023-02-15T01:11:18;23.75;22.00;14.75
76049;PMS7003;64967;50.234;19.224;2023-02-15T01:13:51;21.00;18.00;14.25
76049;PMS7003;64967;50.234;19.224;2023-02-15T01:16:20;26.75;19.75;14.00
76049;PMS7003;64967;50.234;19.224;2023-02-15T01:18:48;17.50;14.50;11.00
76049;PMS7003;64967;50.234;19.224;2023-02-15T01:21:16;20.25;18.00;11.50
76049;PMS7003;64967;50.234;19.224;2023-02-15T01:23:45;15.00;14.75;12.50
76049;PMS7003;64967;50.234;19.224;2023-02-15T01:26:12;18.75;18.25;10.75
76049;PMS7003;64967;50.234;19.224;2023-02-15T01:28:42;25.25;19.50;13.00
76049;PMS7003;64967;50.234;19.224;2023-02-15T01:31:14;15.50;14.25;10.25
76049;PMS7003;64967;50.234;19.224;2023-02-15T01:33:42;24.50;17.50;10.75
76049;PMS7003;64967;50.234;19.224;2023-02-15T01:36:09;27.25;20.25;13.00
76049;PMS7003;64967;50.234;19.224;2023-02-15T01:38:36;23.50;19.25;13.50
76049;PMS7003;64967;50.234;19.224;2023-02-15T01:41:04;17.00;17.00;11.00
76049;PMS7003;64967;50.234;19.224;2023-02-15T01:43:50;11.50;9.50;6.75
76049;PMS7003;64967;50.234;19.224;2023-02-15T01:46:38;21.50;17.50;11.50
76049;PMS7003;64967;50.234;19.224;2023-02-15T01:49:11;32.50;22.25;13.75
76049;PMS7003;64967;50.234;19.224;2023-02-15T01:51:42;14.75;13.00;7.00
76049;PMS7003;64967;50.234;19.224;2023-02-15T01:54:15;29.25;20.00;14.75
76049;PMS7003;64967;50.234;19.224;2023-02-15T01:56:44;47.25;36.75;25.25
76049;PMS7003;64967;50.234;19.224;2023-02-15T01:59:14;27.67;20.33;15.00
76049;PMS7003;64967;50.234;19.224;2023-02-15T02:01:46;32.75;29.50;18.25
76049;PMS7003;64967;50.234;19.224;2023-02-15T02:04:15;29.25;22.00;12.75
76049;PMS7003;64967;50.234;19.224;2023-02-15T02:06:54;37.25;30.75;19.25
76049;PMS7003;64967;50.234;19.224;2023-02-15T02:09:40;35.33;30.67;20.00
76049;PMS7003;64967;50.234;19.224;2023-02-15T02:12:26;33.00;30.33;20.33
76049;PMS7003;64967;50.234;19.224;2023-02-15T02:15:13;42.67;34.00;23.00
76049;PMS7003;64967;50.234;19.224;2023-02-15T02:38:21;38.50;26.00;16.00
76049;PMS7003;64967;50.234;19.224;2023-02-15T02:43:52;24.25;17.00;11.25
76049;PMS7003;64967;50.234;19.224;2023-02-15T02:46:33;17.50;9.75;7.25
76049;PMS7003;64967;50.234;19.224;2023-02-15T02:49:11;33.67;26.00;18.00
76049;PMS7003;64967;50.234;19.224;2023-02-15T02:51:38;35.33;28.33;18.00
76049;PMS7003;64967;50.234;19.224;2023-02-15T02:54:05;40.67;33.00;18.00
76049;PMS7003;64967;50.234;19.224;2023-02-15T02:56:35;34.00;31.00;21.00
76049;PMS7003;64967;50.234;19.224;2023-02-15T02:59:07;38.00;26.50;16.00
76049;PMS7003;64967;50.234;19.224;2023-02-15T03:04:29;44.00;36.00;23.00
76049;PMS7003;64967;50.234;19.224;2023-02-15T03:07:01;37.33;31.67;20.00
76049;PMS7003;64967;50.234;19.224;2023-02-15T03:09:36;26.50;21.50;13.50
76049;PMS7003;64967;50.234;19.224;2023-02-15T03:12:19;21.75;16.00;10.25
76049;PMS7003;64967;50.234;19.224;2023-02-15T03:14:52;15.00;14.25;10.00
76049;PMS7003;64967;50.234;19.224;2023-02-15T03:17:28;17.75;14.00;9.00
76049;PMS7003;64967;50.234;19.224;2023-02-15T03:20:24;44.67;32.00;21.00
76049;PMS7003;64967;50.234;19.224;2023-02-15T03:22:53;31.67;26.33;18.00
76049;PMS7003;64967;50.234;19.224;2023-02-15T03:25:25;36.00;27.00;16.67
76049;PMS7003;64967;50.234;19.224;2023-02-15T03:28:02;46.00;36.67;21.33
76049;PMS7003;64967;50.234;19.224;2023-02-15T03:30:33;30.67;26.33;17.33
76049;PMS7003;64967;50.234;19.224;2023-02-15T03:33:03;34.33;25.33;18.00
76049;PMS7003;64967;50.234;19.224;2023-02-15T03:35:49;40.67;30.67;20.00
76049;PMS7003;64967;50.234;19.224;2023-02-15T03:38:38;45.00;37.67;25.67
76049;PMS7003;64967;50.234;19.224;2023-02-15T03:41:14;49.67;39.67;26.67
76049;PMS7003;64967;50.234;19.224;2023-02-15T03:48:42;37.33;33.00;23.33
76049;PMS7003;64967;50.234;19.224;2023-02-15T03:51:19;42.00;33.00;21.33
76049;PMS7003;64967;50.234;19.224;2023-02-15T03:54:04;31.33;20.67;11.33
76049;PMS7003;64967;50.234;19.224;2023-02-15T03:56:37;33.33;26.33;17.67
76049;PMS7003;64967;50.234;19.224;2023-02-15T03:59:08;23.75;19.00;12.75
76049;PMS7003;64967;50.234;19.224;2023-02-15T04:04:47;40.33;30.00;14.00
76049;PMS7003;64967;50.234;19.224;2023-02-15T04:07:14;26.33;22.67;14.00
76049;PMS7003;64967;50.234;19.224;2023-02-15T04:09:41;35.67;26.00;17.67
76049;PMS7003;64967;50.234;19.224;2023-02-15T04:12:26;25.75;22.00;16.50
76049;PMS7003;64967;50.234;19.224;2023-02-15T04:14:53;25.25;20.00;13.00
76049;PMS7003;64967;50.234;19.224;2023-02-15T04:17:39;33.33;25.00;15.00
76049;PMS7003;64967;50.234;19.224;2023-02-15T04:20:06;44.67;31.00;19.00
76049;PMS7003;64967;50.234;19.224;2023-02-15T04:22:53;46.67;38.67;22.00
76049;PMS7003;64967;50.234;19.224;2023-02-15T04:25:38;45.00;37.33;22.00
76049;PMS7003;64967;50.234;19.224;2023-02-15T04:28:05;32.00;27.00;17.67
76049;PMS7003;64967;50.234;19.224;2023-02-15T04:30:34;27.67;22.00;15.00
76049;PMS7003;64967;50.234;19.224;2023-02-15T04:33:01;35.67;31.00;19.00
76049;PMS7003;64967;50.234;19.224;2023-02-15T04:35:28;31.67;26.00;17.00
76049;PMS7003;64967;50.234;19.224;2023-02-15T04:37:54;34.67;29.67;17.33
76049;PMS7003;64967;50.234;19.224;2023-02-15T04:40:22;30.67;23.00;13.33
76049;PMS7003;64967;50.234;19.224;2023-02-15T04:42:49;24.67;21.33;10.33
76049;PMS7003;64967;50.234;19.224;2023-02-15T04:45:16;52.33;37.33;19.33
76049;PMS7003;64967;50.234;19.224;2023-02-15T04:47:43;29.67;23.67;14.00
76049;PMS7003;64967;50.234;19.224;2023-02-15T04:50:10;30.67;23.00;14.67
76049;PMS7003;64967;50.234;19.224;2023-02-15T04:52:37;33.33;28.33;18.00
76049;PMS7003;64967;50.234;19.224;2023-02-15T04:55:05;35.00;28.00;19.33
76049;PMS7003;64967;50.234;19.224;2023-02-15T04:57:32;39.33;28.67;19.67
76049;PMS7003;64967;50.234;19.224;2023-02-15T04:59:59;34.00;27.67;19.33
76049;PMS7003;64967;50.234;19.224;2023-02-15T05:02:26;25.00;22.00;13.33
76049;PMS7003;64967;50.234;19.224;2023-02-15T05:04:53;24.67;22.00;15.67
76049;PMS7003;64967;50.234;19.224;2023-02-15T05:07:20;38.67;30.33;21.00
76049;PMS7003;64967;50.234;19.224;2023-02-15T05:09:47;35.67;31.33;20.00
76049;PMS7003;64967;50.234;19.224;2023-02-15T05:12:14;38.67;32.33;22.33
76049;PMS7003;64967;50.234;19.224;2023-02-15T05:14:41;32.00;22.67;15.00
76049;PMS7003;64967;50.234;19.224;2023-02-15T05:17:08;25.25;20.50;13.25
76049;PMS7003;64967;50.234;19.224;2023-02-15T05:19:35;17.50;16.00;10.25
76049;PMS7003;64967;50.234;19.224;2023-02-15T05:22:02;22.67;21.00;13.33
76049;PMS7003;64967;50.234;19.224;2023-02-15T05:24:29;40.67;32.33;21.00
76049;PMS7003;64967;50.234;19.224;2023-02-15T05:27:14;29.67;25.00;16.00
76049;PMS7003;64967;50.234;19.224;2023-02-15T05:30:01;27.67;21.00;13.33
76049;PMS7003;64967;50.234;19.224;2023-02-15T05:32:28;28.33;26.00;17.00
76049;PMS7003;64967;50.234;19.224;2023-02-15T05:34:55;38.00;33.33;21.00
76049;PMS7003;64967;50.234;19.224;2023-02-15T05:37:22;35.67;28.67;17.00
76049;PMS7003;64967;50.234;19.224;2023-02-15T05:39:49;35.33;31.00;17.67
76049;PMS7003;64967;50.234;19.224;2023-02-15T05:42:16;18.67;16.33;13.33
76049;PMS7003;64967;50.234;19.224;2023-02-15T05:44:43;24.67;18.67;13.33
76049;PMS7003;64967;50.234;19.224;2023-02-15T05:47:09;42.33;37.00;25.67
76049;PMS7003;64967;50.234;19.224;2023-02-15T05:49:36;36.33;25.33;18.00
76049;PMS7003;64967;50.234;19.224;2023-02-15T05:52:06;26.67;21.33;15.00
76049;PMS7003;64967;50.234;19.224;2023-02-15T05:54:33;25.00;18.50;12.75
76049;PMS7003;64967;50.234;19.224;2023-02-15T05:57:00;38.00;29.00;17.67
76049;PMS7003;64967;50.234;19.224;2023-02-15T05:59:27;38.33;32.67;21.00
76049;PMS7003;64967;50.234;19.224;2023-02-15T06:01:54;34.67;25.00;17.67
76049;PMS7003;64967;50.234;19.224;2023-02-15T06:04:21;32.67;27.33;18.00
76049;PMS7003;64967;50.234;19.224;2023-02-15T06:06:47;39.33;32.00;20.33
76049;PMS7003;64967;50.234;19.224;2023-02-15T06:09:14;21.33;18.00;16.67
76049;PMS7003;64967;50.234;19.224;2023-02-15T06:11:44;26.33;23.67;15.33
76049;PMS7003;64967;50.234;19.224;2023-02-15T06:14:11;28.00;20.67;14.00
76049;PMS7003;64967;50.234;19.224;2023-02-15T06:16:38;34.75;23.75;13.50
76049;PMS7003;64967;50.234;19.224;2023-02-15T06:19:05;10.00;6.75;6.25
76049;PMS7003;64967;50.234;19.224;2023-02-15T06:21:33;15.00;14.00;10.75
76049;PMS7003;64967;50.234;19.224;2023-02-15T06:24:03;25.33;20.67;13.00
76049;PMS7003;64967;50.234;19.224;2023-02-15T06:26:30;29.33;24.00;14.67
76049;PMS7003;64967;50.234;19.224;2023-02-15T06:28:57;34.67;26.33;15.33
76049;PMS7003;64967;50.234;19.224;2023-02-15T06:31:24;22.50;16.50;9.00
76049;PMS7003;64967;50.234;19.224;2023-02-15T06:33:51;31.00;25.67;17.00
76049;PMS7003;64967;50.234;19.224;2023-02-15T06:36:18;27.67;23.33;17.67
76049;PMS7003;64967;50.234;19.224;2023-02-15T06:38:45;43.67;31.33;17.67
76049;PMS7003;64967;50.234;19.224;2023-02-15T06:41:12;42.67;30.00;18.00
76049;PMS7003;64967;50.234;19.224;2023-02-15T06:43:39;41.00;30.00;19.67
76049;PMS7003;64967;50.234;19.224;2023-02-15T06:46:06;43.00;31.00;19.33
76049;PMS7003;64967;50.234;19.224;2023-02-15T06:48:33;42.33;30.33;20.67
76049;PMS7003;64967;50.234;19.224;2023-02-15T06:51:00;32.33;25.67;16.67
76049;PMS7003;64967;50.234;19.224;2023-02-15T06:53:27;26.75;19.75;12.75
76049;PMS7003;64967;50.234;19.224;2023-02-15T06:56:01;26.33;24.33;14.67
76049;PMS7003;64967;50.234;19.224;2023-02-15T06:58:36;23.75;17.00;10.00
76049;PMS7003;64967;50.234;19.224;2023-02-15T07:01:04;18.25;13.50;7.00
76049;PMS7003;64967;50.234;19.224;2023-02-15T07:03:31;18.25;16.00;10.50
76049;PMS7003;64967;50.234;19.224;2023-02-15T07:05:59;42.67;38.00;23.00
76049;PMS7003;64967;50.234;19.224;2023-02-15T07:08:29;41.00;39.00;21.33
76049;PMS7003;64967;50.234;19.224;2023-02-15T07:10:56;54.33;41.00;23.00
76049;PMS7003;64967;50.234;19.224;2023-02-15T07:13:46;42.67;34.33;22.67
76049;PMS7003;64967;50.234;19.224;2023-02-15T07:16:13;21.33;17.00;9.00
76049;PMS7003;64967;50.234;19.224;2023-02-15T07:18:41;27.00;16.67;4.67
76049;PMS7003;64967;50.234;19.224;2023-02-15T07:21:08;46.67;32.67;22.33
76049;PMS7003;64967;50.234;19.224;2023-02-15T07:23:35;60.00;43.00;27.67
76049;PMS7003;64967;50.234;19.224;2023-02-15T07:26:04;55.33;41.67;26.00
76049;PMS7003;64967;50.234;19.224;2023-02-15T07:28:32;50.33;35.33;22.00
76049;PMS7003;64967;50.234;19.224;2023-02-15T07:31:01;36.00;31.00;21.00
76049;PMS7003;64967;50.234;19.224;2023-02-15T07:33:32;48.67;38.33;22.00
76049;PMS7003;64967;50.234;19.224;2023-02-15T07:36:01;29.00;25.50;17.00
76049;PMS7003;64967;50.234;19.224;2023-02-15T07:38:31;23.50;10.75;3.25
76049;PMS7003;64967;50.234;19.224;2023-02-15T07:41:07;21.75;17.25;11.00
76049;PMS7003;64967;50.234;19.224;2023-02-15T07:43:37;22.50;19.25;11.00
76049;PMS7003;64967;50.234;19.224;2023-02-15T07:46:06;20.25;18.50;13.25
76049;PMS7003;64967;50.234;19.224;2023-02-15T07:48:39;22.25;17.75;11.50
76049;PMS7003;64967;50.234;19.224;2023-02-15T07:51:07;22.50;20.75;14.50
76049;PMS7003;64967;50.234;19.224;2023-02-15T07:53:36;49.33;33.67;19.33
76049;PMS7003;64967;50.234;19.224;2023-02-15T07:56:10;30.75;24.00;17.75
76049;PMS7003;64967;50.234;19.224;2023-02-15T07:58:39;29.75;22.25;14.50
76049;PMS7003;64967;50.234;19.224;2023-02-15T08:01:33;20.50;18.00;13.00
76049;PMS7003;64967;50.234;19.224;2023-02-15T08:04:02;45.67;33.33;19.00
76049;PMS7003;64967;50.234;19.224;2023-02-15T08:06:35;29.25;20.75;15.00
76049;PMS7003;64967;50.234;19.224;2023-02-15T08:09:04;27.00;21.75;12.00
76049;PMS7003;64967;50.234;19.224;2023-02-15T08:11:34;39.50;24.00;16.75
76049;PMS7003;64967;50.234;19.224;2023-02-15T08:19:08;26.50;23.25;15.75
76049;PMS7003;64967;50.234;19.224;2023-02-15T08:21:47;36.50;29.25;18.25
76049;PMS7003;64967;50.234;19.224;2023-02-15T08:24:17;40.00;31.50;22.00
76049;PMS7003;64967;50.234;19.224;2023-02-15T08:26:46;48.00;39.00;25.33
76049;PMS7003;64967;50.234;19.224;2023-02-15T08:29:15;50.75;36.75;22.25
76049;PMS7003;64967;50.234;19.224;2023-02-15T08:31:44;46.33;39.00;22.33
76049;PMS7003;64967;50.234;19.224;2023-02-15T08:34:13;45.00;35.00;21.33
76049;PMS7003;64967;50.234;19.224;2023-02-15T08:36:42;33.25;28.50;18.00
76049;PMS7003;64967;50.234;19.224;2023-02-15T08:39:11;28.50;25.25;18.25
76049;PMS7003;64967;50.234;19.224;2023-02-15T08:41:41;44.25;31.25;22.00
76049;PMS7003;64967;50.234;19.224;2023-02-15T08:44:14;58.67;44.00;25.67
76049;PMS7003;64967;50.234;19.224;2023-02-15T08:46:43;50.33;41.00;27.00
76049;PMS7003;64967;50.234;19.224;2023-02-15T08:49:12;53.33;39.00;28.00
76049;PMS7003;64967;50.234;19.224;2023-02-15T08:51:42;59.67;44.67;25.33
76049;PMS7003;64967;50.234;19.224;2023-02-15T08:54:10;49.00;39.00;22.00
76049;PMS7003;64967;50.234;19.224;2023-02-15T08:56:40;47.00;37.75;25.00
76049;PMS7003;64967;50.234;19.224;2023-02-15T08:59:12;53.00;40.67;28.00
76049;PMS7003;64967;50.234;19.224;2023-02-15T09:01:45;59.33;44.67;28.00
76049;PMS7003;64967;50.234;19.224;2023-02-15T09:04:13;52.33;40.00;28.00
76049;PMS7003;64967;50.234;19.224;2023-02-15T09:06:42;56.33;43.33;28.00
76049;PMS7003;64967;50.234;19.224;2023-02-15T09:09:13;49.67;40.33;22.33
76049;PMS7003;64967;50.234;19.224;2023-02-15T09:11:42;48.50;38.75;25.25
76049;PMS7003;64967;50.234;19.224;2023-02-15T09:14:12;46.50;33.50;19.00
76049;PMS7003;64967;50.234;19.224;2023-02-15T09:16:40;46.00;36.75;23.25
76049;PMS7003;64967;50.234;19.224;2023-02-15T09:19:11;57.75;40.25;26.25
76049;PMS7003;64967;50.234;19.224;2023-02-15T09:21:38;51.00;38.50;24.75
76049;PMS7003;64967;50.234;19.224;2023-02-15T09:24:06;47.50;37.25;23.75
76049;PMS7003;64967;50.234;19.224;2023-02-15T09:26:36;34.50;28.50;15.00
76049;PMS7003;64967;50.234;19.224;2023-02-15T09:29:07;31.00;26.25;15.25
76049;PMS7003;64967;50.234;19.224;2023-02-15T09:31:43;29.75;23.50;16.00
76049;PMS7003;64967;50.234;19.224;2023-02-15T09:34:12;33.75;27.00;21.25
76049;PMS7003;64967;50.234;19.224;2023-02-15T09:36:42;37.50;28.00;17.50
76049;PMS7003;64967;50.234;19.224;2023-02-15T09:39:11;17.25;16.50;11.00
76049;PMS7003;64967;50.234;19.224;2023-02-15T09:56:02;34.50;28.50;17.75
76049;PMS7003;64967;50.234;19.224;2023-02-15T10:04:26;26.50;22.00;13.00
76049;PMS7003;64967;50.234;19.224;2023-02-15T10:23:13;45.50;39.75;26.00
76049;PMS7003;64967;50.234;19.224;2023-02-15T10:28:50;36.00;33.50;21.00
76049;PMS7003;64967;50.234;19.224;2023-02-15T10:40:20;38.25;33.50;20.50
76049;PMS7003;64967;50.234;19.224;2023-02-15T10:51:23;24.25;22.00;17.00
76049;PMS7003;64967;50.234;19.224;2023-02-15T10:56:50;34.25;25.50;15.50
76049;PMS7003;64967;50.234;19.224;2023-02-15T11:02:40;28.50;23.75;16.50
76049;PMS7003;64967;50.234;19.224;2023-02-15T11:07:51;30.50;25.00;18.00
76049;PMS7003;64967;50.234;19.224;2023-02-15T11:10:30;35.75;29.75;18.25
76049;PMS7003;64967;50.234;19.224;2023-02-15T11:13:04;19.00;16.00;8.00
76049;PMS7003;64967;50.234;19.224;2023-02-15T11:15:36;23.75;17.00;12.00
76049;PMS7003;64967;50.234;19.224;2023-02-15T11:18:13;28.25;20.25;13.00
76049;PMS7003;64967;50.234;19.224;2023-02-15T11:20:54;30.25;24.75;18.00
76049;PMS7003;64967;50.234;19.224;2023-02-15T11:23:35;25.25;21.25;10.00
76049;PMS7003;64967;50.234;19.224;2023-02-15T11:26:11;28.25;22.00;14.00
76049;PMS7003;64967;50.234;19.224;2023-02-15T11:28:55;30.25;26.00;16.75
76049;PMS7003;64967;50.234;19.224;2023-02-15T11:31:32;20.00;19.00;12.00
76049;PMS7003;64967;50.234;19.224;2023-02-15T11:34:23;18.25;14.25;8.25
76049;PMS7003;64967;50.234;19.224;2023-02-15T11:37:01;17.00;12.50;9.00
76049;PMS7003;64967;50.234;19.224;2023-02-15T11:39:35;20.00;15.00;9.25
76049;PMS7003;64967;50.234;19.224;2023-02-15T11:42:09;15.25;13.50;9.50
76049;PMS7003;64967;50.234;19.224;2023-02-15T11:47:25;12.75;10.50;8.00
76049;PMS7003;64967;50.234;19.224;2023-02-15T11:49:52;12.75;12.25;9.00
76049;PMS7003;64967;50.234;19.224;2023-02-15T11:52:19;17.25;16.00;12.25
76049;PMS7003;64967;50.234;19.224;2023-02-15T11:54:46;13.00;12.00;8.50
76049;PMS7003;64967;50.234;19.224;2023-02-15T12:00:00;14.00;12.00;7.50
76049;PMS7003;64967;50.234;19.224;2023-02-15T12:02:33;13.25;9.50;7.00
76049;PMS7003;64967;50.234;19.224;2023-02-15T12:05:07;12.25;9.00;7.00
76049;PMS7003;64967;50.234;19.224;2023-02-15T12:07:50;7.50;6.00;4.00
76049;PMS7003;64967;50.234;19.224;2023-02-15T12:10:26;15.75;9.50;7.75
76049;PMS7003;64967;50.234;19.224;2023-02-15T12:13:13;21.50;16.00;9.75
76049;PMS7003;64967;50.234;19.224;2023-02-15T12:15:46;9.50;9.00;7.00
76049;PMS7003;64967;50.234;19.224;2023-02-15T12:20:52;10.25;7.00;6.00
76049;PMS7003;64967;50.234;19.224;2023-02-15T12:23:24;12.25;8.75;6.00
76049;PMS7003;64967;50.234;19.224;2023-02-15T12:25:54;13.50;11.25;8.25
76049;PMS7003;64967;50.234;19.224;2023-02-15T12:30:51;9.25;7.75;7.25
76049;PMS7003;64967;50.234;19.224;2023-02-15T12:33:38;12.25;11.00;8.75
76049;PMS7003;64967;50.234;19.224;2023-02-15T12:36:21;11.00;11.00;8.75
76049;PMS7003;64967;50.234;19.224;2023-02-15T12:41:46;9.75;8.75;7.50
76049;PMS7003;64967;50.234;19.224;2023-02-15T12:44:28;13.25;9.75;7.00
76049;PMS7003;64967;50.234;19.224;2023-02-15T12:49:37;9.25;8.00;7.00
76049;PMS7003;64967;50.234;19.224;2023-02-15T12:52:06;10.25;8.25;6.50
76049;PMS7003;64967;50.234;19.224;2023-02-15T12:54:48;13.50;11.00;8.75
76049;PMS7003;64967;50.234;19.224;2023-02-15T12:57:29;14.75;11.00;7.25
76049;PMS7003;64967;50.234;19.224;2023-02-15T13:00:03;8.00;8.00;5.00
76049;PMS7003;64967;50.234;19.224;2023-02-15T13:02:42;8.75;5.25;4.00
76049;PMS7003;64967;50.234;19.224;2023-02-15T13:07:54;9.50;8.75;5.25
76049;PMS7003;64967;50.234;19.224;2023-02-15T13:10:28;8.00;8.00;4.75
76049;PMS7003;64967;50.234;19.224;2023-02-15T13:12:59;2.50;2.50;2.00
76049;PMS7003;64967;50.234;19.224;2023-02-15T13:15:41;8.50;8.00;5.25
76049;PMS7003;64967;50.234;19.224;2023-02-15T13:18:17;12.50;9.00;7.00
76049;PMS7003;64967;50.234;19.224;2023-02-15T13:20:54;10.00;8.00;5.00
76049;PMS7003;64967;50.234;19.224;2023-02-15T13:23:28;7.75;7.00;4.75
76049;PMS7003;64967;50.234;19.224;2023-02-15T13:25:58;13.50;11.00;9.00
76049;PMS7003;64967;50.234;19.224;2023-02-15T13:28:37;9.00;8.25;7.00
76049;PMS7003;64967;50.234;19.224;2023-02-15T13:31:12;15.25;12.25;9.50
76049;PMS7003;64967;50.234;19.224;2023-02-15T13:33:46;15.00;12.75;9.75
76049;PMS7003;64967;50.234;19.224;2023-02-15T13:36:20;10.00;8.50;6.50
76049;PMS7003;64967;50.234;19.224;2023-02-15T13:42:27;7.00;7.00;5.25
76049;PMS7003;64967;50.234;19.224;2023-02-15T13:57:04;4.00;3.50;1.50
76049;PMS7003;64967;50.234;19.224;2023-02-15T14:02:48;8.00;7.50;5.25
76049;PMS7003;64967;50.234;19.224;2023-02-15T14:11:07;9.50;7.50;5.00
76049;PMS7003;64967;50.234;19.224;2023-02-15T14:30:21;8.75;8.00;5.25
76049;PMS7003;64967;50.234;19.224;2023-02-15T14:32:57;6.75;5.00;3.00
76049;PMS7003;64967;50.234;19.224;2023-02-15T14:35:28;5.50;4.75;3.00
76049;PMS7003;64967;50.234;19.224;2023-02-15T14:41:00;6.25;4.00;4.00
76049;PMS7003;64967;50.234;19.224;2023-02-15T14:43:51;4.25;4.25;3.50
76049;PMS7003;64967;50.234;19.224;2023-02-15T14:56:46;10.75;9.00;6.75
76049;PMS7003;64967;50.234;19.224;2023-02-15T14:59:46;10.25;10.00;6.75
76049;PMS7003;64967;50.234;19.224;2023-02-15T15:05:19;8.00;5.25;4.00
76049;PMS7003;64967;50.234;19.224;2023-02-15T15:07:51;7.50;6.75;3.75
76049;PMS7003;64967;50.234;19.224;2023-02-15T15:12:51;7.25;5.00;3.50
76049;PMS7003;64967;50.234;19.224;2023-02-15T15:18:10;7.00;4.25;4.00
76049;PMS7003;64967;50.234;19.224;2023-02-15T15:20:57;5.50;4.75;3.25
76049;PMS7003;64967;50.234;19.224;2023-02-15T15:23:45;8.75;6.75;5.00
76049;PMS7003;64967;50.234;19.224;2023-02-15T15:26:22;6.75;6.75;5.50
76049;PMS7003;64967;50.234;19.224;2023-02-15T15:29:00;4.00;2.50;2.00
76049;PMS7003;64967;50.234;19.224;2023-02-15T15:39:52;3.50;0.75;0.75
76049;PMS7003;64967;50.234;19.224;2023-02-15T15:45:55;8.75;6.00;5.00
76049;PMS7003;64967;50.234;19.224;2023-02-15T15:48:44;10.75;8.25;7.25
76049;PMS7003;64967;50.234;19.224;2023-02-15T15:51:18;9.75;8.00;6.25
76049;PMS7003;64967;50.234;19.224;2023-02-15T15:53:53;6.75;6.75;6.00
76049;PMS7003;64967;50.234;19.224;2023-02-15T15:56:26;5.75;4.50;3.50
76049;PMS7003;64967;50.234;19.224;2023-02-15T15:58:58;9.50;8.75;7.00
76049;PMS7003;64967;50.234;19.224;2023-02-15T16:01:29;12.75;10.75;7.00
76049;PMS7003;64967;50.234;19.224;2023-02-15T16:04:01;13.50;11.00;8.00
76049;PMS7003;64967;50.234;19.224;2023-02-15T16:06:36;10.00;9.75;7.75
76049;PMS7003;64967;50.234;19.224;2023-02-15T16:11:37;10.00;9.75;7.50
76049;PMS7003;64967;50.234;19.224;2023-02-15T16:17:19;10.75;8.25;7.25
76049;PMS7003;64967;50.234;19.224;2023-02-15T16:19:51;6.00;6.00;5.50
76049;PMS7003;64967;50.234;19.224;2023-02-15T16:22:24;6.50;6.50;5.00
76049;PMS7003;64967;50.234;19.224;2023-02-15T16:27:44;13.25;12.75;8.75
76049;PMS7003;64967;50.234;19.224;2023-02-15T16:30:20;16.25;12.75;10.50
76049;PMS7003;64967;50.234;19.224;2023-02-15T16:32:53;17.25;14.00;8.25
76049;PMS7003;64967;50.234;19.224;2023-02-15T16:35:22;14.25;12.25;9.25
76049;PMS7003;64967;50.234;19.224;2023-02-15T16:37:49;12.75;8.75;6.75
76049;PMS7003;64967;50.234;19.224;2023-02-15T16:40:59;9.25;8.50;7.00
76049;PMS7003;64967;50.234;19.224;2023-02-15T16:43:19;7.00;6.50;4.50
76049;PMS7003;64967;50.234;19.224;2023-02-15T16:45:51;10.25;6.50;4.75
76049;PMS7003;64967;50.234;19.224;2023-02-15T16:48:24;4.25;3.75;2.75
76049;PMS7003;64967;50.234;19.224;2023-02-15T16:50:54;7.50;6.75;6.00
76049;PMS7003;64967;50.234;19.224;2023-02-15T16:53:27;7.50;6.75;5.50
76049;PMS7003;64967;50.234;19.224;2023-02-15T16:55:55;6.25;6.25;5.50
76049;PMS7003;64967;50.234;19.224;2023-02-15T16:58:26;9.75;6.75;6.50
76049;PMS7003;64967;50.234;19.224;2023-02-15T17:00:58;3.00;3.00;2.00
76049;PMS7003;64967;50.234;19.224;2023-02-15T17:03:28;7.00;6.00;5.25
76049;PMS7003;64967;50.234;19.224;2023-02-15T17:05:56;6.00;5.50;3.50
76049;PMS7003;64967;50.234;19.224;2023-02-15T17:13:26;8.25;7.75;6.25
76049;PMS7003;64967;50.234;19.224;2023-02-15T17:18:38;15.75;14.75;11.25
76049;PMS7003;64967;50.234;19.224;2023-02-15T17:21:20;18.75;16.25;12.50
76049;PMS7003;64967;50.234;19.224;2023-02-15T17:24:02;21.25;17.25;12.00
76049;PMS7003;64967;50.234;19.224;2023-02-15T17:26:31;15.25;12.75;10.75
76049;PMS7003;64967;50.234;19.224;2023-02-15T17:29:11;18.75;16.75;13.00
76049;PMS7003;64967;50.234;19.224;2023-02-15T17:31:44;16.00;12.50;11.00
76049;PMS7003;64967;50.234;19.224;2023-02-15T17:37:13;18.25;17.00;14.00
76049;PMS7003;64967;50.234;19.224;2023-02-15T17:39:49;16.25;13.25;9.00
76049;PMS7003;64967;50.234;19.224;2023-02-15T17:42:16;25.00;22.25;15.50
76049;PMS7003;64967;50.234;19.224;2023-02-15T17:44:43;57.33;42.33;28.00
76049;PMS7003;64967;50.234;19.224;2023-02-15T17:47:13;59.33;47.33;31.00